createdAt,value
2023-04-03T00:01:59.078Z,4.62
2023-04-03T00:06:01.350Z,8.35
2023-04-03T00:10:03.765Z,6.60
2023-04-03T00:14:05.645Z,4.47
2023-04-03T00:18:07.927Z,5.30
2023-04-03T00:22:09.675Z,8.15
2023-04-03T00:26:11.592Z,4.97
2023-04-03T00:30:16.709Z,8.60
2023-04-03T00:34:18.423Z,7.70
2023-04-03T00:38:20.296Z,5.93
2023-04-03T00:42:22.106Z,8.88
2023-04-03T00:46:23.863Z,6.20
2023-04-03T00:50:26.028Z,7.70
2023-04-03T00:54:27.949Z,7.57
2023-04-03T00:58:38.034Z,6.35
2023-04-03T01:02:41.913Z,7.53
2023-04-03T01:06:43.697Z,6.05
2023-04-03T01:10:45.915Z,7.15
2023-04-03T01:14:50.271Z,8.93
2023-04-03T01:18:52.012Z,7.72
2023-04-03T01:23:10.564Z,10.98
2023-04-03T01:27:13.042Z,7.05
2023-04-03T01:31:33.570Z,7.37
2023-04-03T01:35:35.308Z,8.13
2023-04-03T01:39:37.041Z,5.55
2023-04-03T01:43:38.743Z,10.20
2023-04-03T01:47:40.612Z,8.05
2023-04-03T01:51:42.280Z,6.53
2023-04-03T01:55:44.474Z,7.43
2023-04-03T01:59:46.164Z,7.20
2023-04-03T02:03:47.957Z,5.97
2023-04-03T02:07:49.808Z,9.35
2023-04-03T02:11:51.767Z,8.57
2023-04-03T02:15:53.504Z,6.55
2023-04-03T02:19:55.518Z,6.47
2023-04-03T02:23:57.406Z,6.65
2023-04-03T02:27:59.242Z,6.35
2023-04-03T02:32:00.995Z,8.43
2023-04-03T02:36:05.419Z,10.13
2023-04-03T02:40:08.086Z,9.57
2023-04-03T02:44:11.241Z,10.30
2023-04-03T02:48:13.033Z,8.15
2023-04-03T02:52:15.942Z,11.90
2023-04-03T02:56:19.018Z,11.30
2023-04-03T03:00:21.167Z,8.52
2023-04-03T03:04:23.009Z,13.43
2023-04-03T03:08:24.750Z,11.30
2023-04-03T03:12:26.414Z,7.35
2023-04-03T03:16:28.165Z,7.18
2023-04-03T03:20:29.915Z,12.02
2023-04-03T03:24:31.635Z,8.02
2023-04-03T03:28:33.854Z,10.88
2023-04-03T03:32:35.839Z,9.50
2023-04-03T03:36:37.717Z,9.30
2023-04-03T03:40:39.493Z,9.68
2023-04-03T03:44:41.276Z,6.65
2023-04-03T03:48:43.015Z,7.55
2023-04-03T03:52:45.396Z,6.72
2023-04-03T03:56:47.098Z,8.50
2023-04-03T04:00:48.879Z,7.62
2023-04-03T04:04:50.645Z,6.75
2023-04-03T04:08:52.370Z,6.57
2023-04-03T04:12:57.354Z,6.97
2023-04-03T04:17:00.188Z,10.57
2023-04-03T04:21:01.892Z,6.68
2023-04-03T04:25:03.760Z,12.10
2023-04-03T04:29:05.492Z,6.03
2023-04-03T04:33:07.746Z,7.28
2023-04-03T04:37:09.606Z,7.50
2023-04-03T04:41:11.280Z,8.73
2023-04-03T04:45:13.382Z,7.12
2023-04-03T04:49:15.097Z,5.97
2023-04-03T04:53:16.798Z,8.23
2023-04-03T04:57:18.629Z,5.40
2023-04-03T05:01:20.620Z,7.12
2023-04-03T05:05:23.196Z,14.52
2023-04-03T05:09:24.869Z,6.75
2023-04-03T05:13:26.755Z,13.45
2023-04-03T05:17:28.569Z,6.37
2023-04-03T05:21:33.125Z,9.35
2023-04-03T05:25:35.454Z,9.15
2023-04-03T05:29:37.402Z,7.45
2023-04-03T05:33:39.106Z,8.07
2023-04-03T05:37:40.948Z,12.10
2023-04-03T05:41:42.639Z,11.10
2023-04-03T05:45:46.716Z,7.50
2023-04-03T05:49:48.850Z,4.95
2023-04-03T05:54:00.566Z,5.72
2023-04-03T05:58:02.262Z,4.60
2023-04-03T06:02:04.126Z,6.05
2023-04-03T06:06:06.361Z,6.43
2023-04-03T06:10:09.802Z,8.25
2023-04-03T06:14:11.899Z,5.55
2023-04-03T06:18:13.643Z,8.07
2023-04-03T06:22:16.453Z,8.07
2023-04-03T06:26:18.472Z,5.78
2023-04-03T06:30:20.382Z,7.57
2023-04-03T06:34:22.264Z,10.35
2023-04-03T06:38:23.963Z,5.28
2023-04-03T06:42:25.931Z,7.70
2023-04-03T06:46:28.187Z,8.65
2023-04-03T06:50:29.920Z,6.32
2023-04-03T06:54:31.868Z,4.97
2023-04-03T06:58:33.553Z,6.62
2023-04-03T07:02:35.569Z,6.40
2023-04-03T07:06:37.286Z,5.12
2023-04-03T07:10:39.632Z,9.13
2023-04-03T07:14:42.357Z,6.50
2023-04-03T07:18:44.046Z,4.93
2023-04-03T07:22:45.886Z,7.15
2023-04-03T07:26:51.084Z,9.00
2023-04-03T07:30:54.825Z,9.18
2023-04-03T07:34:56.548Z,6.05
2023-04-03T07:38:58.541Z,5.37
2023-04-03T07:43:00.673Z,6.00
2023-04-03T07:47:02.436Z,6.90
2023-04-03T07:51:05.447Z,4.50
2023-04-03T07:55:07.786Z,7.00
2023-04-03T07:59:11.326Z,5.43
2023-04-03T08:03:13.862Z,4.45
2023-04-03T08:07:15.986Z,4.68
2023-04-03T08:11:19.560Z,3.62
2023-04-03T08:15:21.418Z,4.07
2023-04-03T08:19:26.477Z,3.70
2023-04-03T08:23:28.650Z,4.47
2023-04-03T08:27:30.392Z,3.78
2023-04-03T08:31:32.160Z,4.05
2023-04-03T08:35:34.843Z,5.85
2023-04-03T08:39:38.067Z,5.40
2023-04-03T08:44:03.041Z,2.08
2023-04-03T08:48:13.133Z,2.92
2023-04-03T08:52:52.953Z,3.70
2023-04-03T08:56:56.080Z,2.97
2023-04-03T09:01:08.954Z,3.55
2023-04-03T09:05:15.866Z,3.28
2023-04-03T09:09:42.148Z,4.80
2023-04-03T09:14:25.202Z,2.97
2023-04-03T09:18:43.169Z,3.30
2023-04-03T09:22:49.715Z,4.55
2023-04-03T09:27:00.649Z,3.15
2023-04-03T09:31:07.918Z,3.42
2023-04-03T09:43:56.786Z,2.50
2023-04-03T09:48:15.444Z,4.37
2023-04-03T09:52:25.240Z,3.85
2023-04-03T09:56:29.505Z,1.83
2023-04-03T10:00:37.326Z,3.37
2023-04-03T10:04:41.670Z,4.70
2023-04-03T10:08:43.375Z,2.20
2023-04-03T10:12:45.307Z,2.22
2023-04-03T10:16:58.282Z,3.08
2023-04-03T10:21:27.797Z,2.20
2023-04-03T10:26:08.589Z,3.83
2023-04-03T10:30:19.219Z,2.85
2023-04-03T10:34:25.942Z,2.37
2023-04-03T10:39:00.326Z,2.75
2023-04-03T10:43:02.007Z,2.25
2023-04-03T10:47:11.515Z,2.78
2023-04-03T10:51:21.947Z,2.97
2023-04-03T10:55:32.968Z,6.45
2023-04-03T10:59:49.126Z,2.60
2023-04-03T11:03:55.647Z,3.90
2023-04-03T11:08:03.523Z,1.92
2023-04-03T11:12:17.897Z,2.95
2023-04-03T11:16:27.853Z,3.08
2023-04-03T11:20:34.033Z,3.33
2023-04-03T11:24:39.275Z,3.10
2023-04-03T11:28:41.690Z,5.60
2023-04-03T11:33:09.459Z,3.03
2023-04-03T11:37:42.250Z,1.67
2023-04-03T11:41:44.090Z,1.55
2023-04-03T11:45:56.759Z,3.15
2023-04-03T11:50:01.229Z,3.10
2023-04-03T11:54:44.918Z,3.55
2023-04-03T11:59:05.999Z,3.87
2023-04-03T12:03:38.177Z,3.78
2023-04-03T12:07:40.271Z,3.00
2023-04-03T12:11:42.130Z,2.78
2023-04-03T12:15:52.199Z,2.42
2023-04-03T12:19:54.032Z,2.00
2023-04-03T12:24:09.496Z,4.12
2023-04-03T12:28:12.076Z,2.30
2023-04-03T12:32:40.434Z,2.60
2023-04-03T12:37:36.334Z,2.08
2023-04-03T12:42:02.275Z,3.10
2023-04-03T12:46:10.841Z,1.42
2023-04-03T12:50:28.012Z,2.17
2023-04-03T12:54:41.373Z,1.42
2023-04-03T12:58:43.066Z,1.48
2023-04-03T13:02:47.226Z,2.33
2023-04-03T13:06:49.438Z,3.60
2023-04-03T13:11:12.279Z,1.42
2023-04-03T13:15:21.997Z,2.55
2023-04-03T13:19:27.609Z,3.17
2023-04-03T13:27:34.369Z,2.50
2023-04-03T13:31:39.399Z,1.83
2023-04-03T13:35:42.560Z,2.92
2023-04-03T13:39:44.299Z,2.60
2023-04-03T13:43:45.964Z,3.08
2023-04-03T13:47:49.659Z,3.15
2023-04-03T13:52:04.414Z,3.45
2023-04-03T13:56:17.098Z,2.47
2023-04-03T14:00:53.094Z,3.45
2023-04-03T14:05:00.821Z,2.78
2023-04-03T14:09:02.615Z,3.08
2023-04-03T14:13:04.727Z,3.22
2023-04-03T14:17:24.681Z,3.33
2023-04-03T14:21:27.121Z,4.85
2023-04-03T14:25:29.310Z,1.75
2023-04-03T14:29:31.140Z,5.37
2023-04-03T14:33:35.725Z,2.35
2023-04-03T14:37:37.813Z,2.60
2023-04-03T14:41:39.703Z,3.70
2023-04-03T14:45:41.781Z,2.90
2023-04-03T14:49:44.276Z,2.75
2023-04-03T14:53:46.789Z,2.08
2023-04-03T14:57:48.686Z,2.90
2023-04-03T15:01:50.586Z,1.80
2023-04-03T15:05:52.441Z,5.40
2023-04-03T15:09:54.523Z,2.53
2023-04-03T15:13:56.238Z,2.37
2023-04-03T15:17:58.814Z,3.15
2023-04-03T15:22:00.940Z,3.67
2023-04-03T15:26:02.991Z,3.83
2023-04-03T15:30:06.914Z,2.78
2023-04-03T15:34:08.642Z,4.28
2023-04-03T15:38:11.411Z,5.35
2023-04-03T15:42:13.657Z,4.00
2023-04-03T15:46:15.728Z,3.28
2023-04-03T15:50:17.776Z,2.72
2023-04-03T15:54:19.486Z,3.60
2023-04-03T15:58:21.222Z,4.05
2023-04-03T16:02:23.657Z,2.42
2023-04-03T16:06:26.654Z,3.72
2023-04-03T16:10:29.015Z,2.33
2023-04-03T16:14:31.209Z,3.60
2023-04-03T16:18:34.906Z,2.60
2023-04-03T16:22:37.435Z,5.03
2023-04-03T16:26:39.311Z,3.17
2023-04-03T16:30:42.463Z,2.58
2023-04-03T16:34:45.031Z,3.03
2023-04-03T16:38:46.786Z,6.57
2023-04-03T16:42:48.575Z,3.97
2023-04-03T16:46:50.330Z,5.90
2023-04-03T16:50:54.274Z,2.97
2023-04-03T16:54:56.575Z,2.85
2023-04-03T16:58:58.492Z,3.08
2023-04-03T17:03:00.696Z,1.98
2023-04-03T17:07:06.820Z,4.10
2023-04-03T17:11:08.525Z,2.08
2023-04-03T17:15:10.646Z,3.85
2023-04-03T17:19:12.770Z,3.65
2023-04-03T17:23:14.518Z,2.58
2023-04-03T17:27:16.339Z,2.60
2023-04-03T17:31:18.368Z,2.37
2023-04-03T17:35:20.245Z,2.70
2023-04-03T17:39:21.936Z,1.87
2023-04-03T17:43:23.702Z,1.33
2023-04-03T17:47:25.903Z,1.83
2023-04-03T17:51:28.101Z,3.67
2023-04-03T17:55:29.870Z,2.60
2023-04-03T17:59:31.996Z,6.95
2023-04-03T18:03:33.755Z,5.05
2023-04-03T18:07:37.179Z,6.37
2023-04-03T18:11:39.102Z,4.62
2023-04-03T18:15:45.642Z,4.03
2023-04-03T18:19:48.224Z,6.65
2023-04-03T18:23:53.267Z,3.83
2023-04-03T18:27:55.585Z,3.05
2023-04-03T18:31:58.832Z,3.65
2023-04-03T18:36:00.894Z,4.25
2023-04-03T18:40:02.799Z,5.32
2023-04-03T18:44:09.813Z,4.60
2023-04-03T18:48:11.582Z,3.75
2023-04-03T18:52:13.375Z,5.03
2023-04-03T18:56:16.159Z,5.95
2023-04-03T19:00:19.044Z,2.95
2023-04-03T19:04:20.957Z,5.30
2023-04-03T19:08:23.843Z,4.62
2023-04-03T19:12:25.961Z,3.33
2023-04-03T19:16:27.723Z,5.37
2023-04-03T19:20:29.427Z,4.53
2023-04-03T19:24:31.224Z,4.20
2023-04-03T19:28:33.466Z,3.33
2023-04-03T19:32:35.234Z,4.20
2023-04-03T19:36:37.160Z,4.10
2023-04-03T19:40:43.484Z,4.30
2023-04-03T19:44:46.899Z,4.93
2023-04-03T19:48:48.629Z,6.97
2023-04-03T19:52:50.388Z,2.75
2023-04-03T19:56:52.213Z,4.07
2023-04-03T20:00:55.301Z,3.40
2023-04-03T20:04:57.832Z,3.30
2023-04-03T20:08:59.526Z,5.68
2023-04-03T20:13:01.348Z,2.30
2023-04-03T20:17:04.187Z,4.97
2023-04-03T20:21:07.222Z,4.72
2023-04-03T20:25:15.210Z,3.37
2023-04-03T20:29:19.205Z,4.65
2023-04-03T20:33:22.186Z,2.35
2023-04-03T20:37:24.007Z,6.10
2023-04-03T20:41:25.957Z,6.10
2023-04-03T20:45:28.273Z,1.87
2023-04-03T20:49:29.982Z,7.00
2023-04-03T20:53:31.907Z,3.28
2023-04-03T20:57:34.354Z,4.20
2023-04-03T21:01:36.188Z,3.10
2023-04-03T21:05:38.198Z,4.93
2023-04-03T21:10:18.544Z,3.80
2023-04-03T21:14:58.119Z,5.07
2023-04-03T21:19:12.239Z,5.57
2023-04-03T21:23:14.416Z,2.50
2023-04-03T21:27:16.214Z,4.55
2023-04-03T21:31:19.163Z,4.22
2023-04-03T21:35:20.950Z,2.78
2023-04-03T21:39:23.601Z,3.25
2023-04-03T21:43:25.477Z,4.75
2023-04-03T21:47:28.351Z,4.25
2023-04-03T21:51:30.126Z,2.62
2023-04-03T21:55:31.853Z,4.50
2023-04-03T21:59:34.263Z,3.10
2023-04-03T22:03:36.233Z,4.43
2023-04-03T22:07:38.013Z,3.70
2023-04-03T22:11:45.937Z,3.00
2023-04-03T22:15:48.218Z,3.08
2023-04-03T22:19:49.984Z,3.22
2023-04-03T22:23:52.482Z,7.07
2023-04-03T22:27:54.215Z,2.03
2023-04-03T22:31:56.034Z,2.33
2023-04-03T22:35:58.007Z,4.00
2023-04-03T22:39:59.807Z,4.03
2023-04-03T22:44:01.487Z,2.12
2023-04-03T22:48:03.432Z,4.00
2023-04-03T22:52:05.353Z,2.35
2023-04-03T22:56:10.950Z,2.85
2023-04-03T23:00:13.775Z,4.80
2023-04-03T23:04:16.295Z,7.30
2023-04-03T23:08:19.134Z,2.50
2023-04-03T23:12:21.200Z,5.40
2023-04-03T23:16:22.971Z,3.95
2023-04-03T23:20:26.228Z,3.97
2023-04-03T23:24:28.287Z,2.72
2023-04-03T23:28:30.448Z,2.83
2023-04-03T23:32:32.163Z,3.25
2023-04-03T23:36:33.911Z,6.18
2023-04-03T23:40:35.612Z,3.62
2023-04-03T23:44:37.481Z,3.90
2023-04-03T23:48:39.165Z,3.10
2023-04-03T23:52:41.199Z,4.72
2023-04-03T23:56:42.835Z,5.25
